Time;durP1;ratioP1;P1;durP2;ratioP2;P2;SDS_P1;SDS_P2;PMS_P1;PMS_P2;Temp;Humidity;BMP_temperature;BMP_pressure;BME280_temperature;BME280_humidity;BME280_pressure;Samples;Min_cycle;Max_cycle;Signal;HPM_P1;HPM_P2
2023/09/12 00:00:23;;;;;;;243.30;104.17;;;;;;;;;;5049333;28;20500;-46
2023/09/12 00:02:49;;;;;;;243.90;102.50;;;;;;;;;;5049050;28;20453;-45
2023/09/12 00:05:15;;;;;;;239.90;96.60;;;;;;;;;;5056463;28;20413;-45
2023/09/12 00:07:41;;;;;;;242.57;101.67;;;;;;;;;;5057795;28;20428;-45
2023/09/12 00:10:07;;;;;;;241.70;101.30;;;;;;;;;;5050891;28;20909;-45
2023/09/12 00:12:33;;;;;;;241.83;100.13;;;;;;;;;;5050907;28;20456;-46
2023/09/12 00:14:59;;;;;;;244.27;107.67;;;;;;;;;;5050765;28;20876;-45
2023/09/12 00:17:26;;;;;;;239.97;96.60;;;;;;;;;;5053245;28;20819;-45
2023/09/12 00:19:52;;;;;;;238.97;99.27;;;;;;;;;;5054329;28;20405;-45
2023/09/12 00:22:18;;;;;;;242.03;100.57;;;;;;;;;;5054530;28;20522;-45
2023/09/12 00:24:44;;;;;;;241.33;97.60;;;;;;;;;;5054320;28;20405;-45
2023/09/12 00:27:10;;;;;;;246.40;101.50;;;;;;;;;;5055970;28;20423;-46
2023/09/12 00:29:36;;;;;;;240.10;97.33;;;;;;;;;;5057833;28;20509;-45
2023/09/12 00:32:02;;;;;;;244.40;103.30;;;;;;;;;;5058172;28;20410;-45
2023/09/12 00:34:28;;;;;;;241.50;97.90;;;;;;;;;;5059743;28;20412;-45
2023/09/12 00:36:54;;;;;;;244.67;98.77;;;;;;;;;;5055197;28;20400;-45
2023/09/12 00:39:20;;;;;;;241.03;97.87;;;;;;;;;;5053924;28;20780;-45
2023/09/12 00:41:46;;;;;;;239.90;98.33;;;;;;;;;;5055843;28;20471;-45
2023/09/12 00:44:12;;;;;;;244.97;103.70;;;;;;;;;;5057284;28;20463;-45
2023/09/12 00:46:38;;;;;;;239.10;96.43;;;;;;;;;;5059020;28;20409;-45
2023/09/12 00:49:05;;;;;;;243.37;103.87;;;;;;;;;;5060461;28;20988;-45
2023/09/12 00:51:32;;;;;;;245.23;104.23;;;;;;;;;;5053624;28;20433;-45
2023/09/12 00:53:58;;;;;;;242.33;101.53;;;;;;;;;;5053656;28;20566;-45
2023/09/12 00:56:24;;;;;;;243.27;99.20;;;;;;;;;;5053747;28;20404;-45
2023/09/12 00:58:51;;;;;;;238.93;97.03;;;;;;;;;;5053372;28;20429;-45
2023/09/12 01:01:18;;;;;;;245.23;102.77;;;;;;;;;;5048656;28;20435;-46
2023/09/12 01:03:44;;;;;;;238.53;93.20;;;;;;;;;;5053314;28;20987;-45
2023/09/12 01:06:10;;;;;;;241.73;98.57;;;;;;;;;;5052708;28;20428;-46
2023/09/12 01:08:39;;;;;;;240.73;97.50;;;;;;;;;;5053394;28;20430;-46
2023/09/12 01:11:05;;;;;;;241.20;98.37;;;;;;;;;;5048829;28;20401;-45
2023/09/12 01:13:31;;;;;;;241.53;98.30;;;;;;;;;;5053318;28;20417;-46
2023/09/12 01:15:57;;;;;;;245.43;105.20;;;;;;;;;;5053312;28;20591;-45
2023/09/12 01:18:23;;;;;;;244.77;102.20;;;;;;;;;;5053125;28;20449;-45
2023/09/12 01:21:01;;;;;;;246.23;105.23;;;;;;;;;;5053245;28;20503;-46
2023/09/12 01:23:50;;;;;;;243.80;100.03;;;;;;;;;;5051258;28;20518;-45
2023/09/12 01:26:30;;;;;;;245.63;104.03;;;;;;;;;;5045566;28;20417;-45
2023/09/12 01:28:57;;;;;;;243.50;97.83;;;;;;;;;;5051076;28;20433;-45
2023/09/12 01:31:24;;;;;;;239.00;95.43;;;;;;;;;;5051678;28;20401;-46
2023/09/12 01:33:50;;;;;;;244.97;102.90;;;;;;;;;;5051523;28;20405;-46
2023/09/12 01:36:16;;;;;;;243.17;98.83;;;;;;;;;;5052307;28;20416;-46
2023/09/12 01:38:42;;;;;;;239.93;96.73;;;;;;;;;;5049174;28;20518;-45
2023/09/12 01:41:08;;;;;;;237.70;93.03;;;;;;;;;;5049430;28;20413;-45
2023/09/12 01:43:36;;;;;;;242.27;100.33;;;;;;;;;;5052639;28;20960;-45
2023/09/12 01:46:02;;;;;;;244.10;103.77;;;;;;;;;;5044615;28;20409;-45
2023/09/12 01:48:35;;;;;;;242.73;102.57;;;;;;;;;;5053892;28;20432;-46
2023/09/12 01:51:01;;;;;;;241.83;101.83;;;;;;;;;;5052681;28;20405;-45
2023/09/12 01:53:27;;;;;;;242.70;102.27;;;;;;;;;;5052657;28;20401;-45
2023/09/12 01:55:54;;;;;;;242.47;105.30;;;;;;;;;;5052532;28;20434;-45
2023/09/12 01:58:20;;;;;;;239.13;97.97;;;;;;;;;;5047133;28;20523;-47
2023/09/12 02:00:46;;;;;;;238.83;97.70;;;;;;;;;;5052380;28;20414;-46
2023/09/12 02:03:12;;;;;;;241.17;100.47;;;;;;;;;;5052276;28;20471;-45
2023/09/12 02:05:38;;;;;;;242.20;99.47;;;;;;;;;;5052154;28;20425;-46
2023/09/12 02:08:05;;;;;;;238.13;95.80;;;;;;;;;;5051132;28;20475;-45
2023/09/12 02:10:31;;;;;;;244.20;107.00;;;;;;;;;;5045143;28;20430;-45
2023/09/12 02:12:57;;;;;;;239.17;99.00;;;;;;;;;;5051440;28;20424;-46
2023/09/12 02:15:23;;;;;;;237.60;97.77;;;;;;;;;;5052119;28;20417;-46
2023/09/12 02:17:52;;;;;;;243.57;106.03;;;;;;;;;;5051745;28;20480;-45
2023/09/12 02:20:19;;;;;;;238.13;95.10;;;;;;;;;;5052204;28;20417;-46
2023/09/12 02:22:45;;;;;;;241.83;103.60;;;;;;;;;;5052103;28;20452;-45
2023/09/12 02:25:11;;;;;;;237.13;96.13;;;;;;;;;;5052051;28;20493;-45
2023/09/12 02:27:37;;;;;;;237.93;95.47;;;;;;;;;;5051985;28;20453;-45
2023/09/12 02:30:04;;;;;;;241.57;102.30;;;;;;;;;;5043523;28;20416;-46
2023/09/12 02:32:30;;;;;;;242.50;101.93;;;;;;;;;;5050338;28;20486;-45
2023/09/12 02:34:57;;;;;;;239.43;98.67;;;;;;;;;;5051987;28;20897;-45
2023/09/12 02:37:23;;;;;;;241.83;100.33;;;;;;;;;;5051556;28;20470;-45
2023/09/12 02:39:49;;;;;;;242.53;102.20;;;;;;;;;;5051387;28;20409;-45
2023/09/12 02:42:15;;;;;;;241.13;97.00;;;;;;;;;;5051692;28;20413;-45
2023/09/12 02:44:40;;;;;;;242.43;102.40;;;;;;;;;;5059871;28;20438;-45
2023/09/12 02:47:06;;;;;;;244.77;100.10;;;;;;;;;;5049859;28;20420;-45
2023/09/12 02:49:32;;;;;;;242.73;102.13;;;;;;;;;;5051675;28;20478;-45
2023/09/12 02:51:58;;;;;;;239.37;96.37;;;;;;;;;;5056479;28;20442;-45
2023/09/12 02:54:24;;;;;;;238.37;96.97;;;;;;;;;;5051550;28;20986;-45
2023/09/12 02:56:50;;;;;;;240.77;96.40;;;;;;;;;;5051585;28;20969;-45
2023/09/12 02:59:16;;;;;;;238.30;94.67;;;;;;;;;;5051277;28;20994;-45
2023/09/12 03:01:42;;;;;;;238.87;95.87;;;;;;;;;;5051537;28;20805;-46
2023/09/12 03:04:08;;;;;;;235.60;93.83;;;;;;;;;;5051617;28;20471;-46
2023/09/12 03:06:35;;;;;;;234.37;93.97;;;;;;;;;;5046649;28;20405;-45
2023/09/12 03:09:01;;;;;;;239.23;100.90;;;;;;;;;;5051147;28;20924;-45
2023/09/12 03:11:27;;;;;;;233.37;91.93;;;;;;;;;;5051494;28;20462;-45
2023/09/12 03:13:53;;;;;;;236.47;94.53;;;;;;;;;;5051176;28;20410;-45
2023/09/12 03:16:19;;;;;;;237.17;99.63;;;;;;;;;;5051301;28;20401;-45
2023/09/12 03:18:45;;;;;;;236.53;99.30;;;;;;;;;;5051163;28;20924;-45
2023/09/12 03:21:11;;;;;;;236.47;100.00;;;;;;;;;;5051618;28;20913;-45
2023/09/12 03:23:37;;;;;;;242.87;107.53;;;;;;;;;;5044894;28;20987;-45
2023/09/12 03:26:04;;;;;;;236.27;97.57;;;;;;;;;;5051447;28;20806;-46
2023/09/12 03:28:30;;;;;;;235.63;96.60;;;;;;;;;;5049600;28;20851;-45
2023/09/12 03:31:13;;;;;;;237.53;99.53;;;;;;;;;;5051296;28;20817;-45
2023/09/12 03:33:39;;;;;;;241.27;101.50;;;;;;;;;;5051147;28;20753;-45
2023/09/12 03:36:09;;;;;;;237.67;96.07;;;;;;;;;;5051285;28;20495;-45
2023/09/12 03:38:35;;;;;;;234.60;93.43;;;;;;;;;;5050965;28;20784;-45
2023/09/12 03:41:01;;;;;;;236.17;96.93;;;;;;;;;;5051057;28;20424;-45
2023/09/12 03:43:28;;;;;;;237.47;96.17;;;;;;;;;;5050157;28;20855;-45
2023/09/12 03:45:54;;;;;;;233.47;92.20;;;;;;;;;;5051369;28;20427;-45
2023/09/12 03:48:20;;;;;;;238.30;97.43;;;;;;;;;;5050933;28;20967;-45
2023/09/12 03:50:46;;;;;;;239.60;97.23;;;;;;;;;;5051267;28;20433;-45
2023/09/12 03:53:12;;;;;;;237.53;96.70;;;;;;;;;;5054978;28;20417;-46
2023/09/12 03:55:38;;;;;;;239.60;96.70;;;;;;;;;;5054562;28;20401;-47
2023/09/12 03:58:04;;;;;;;238.47;98.93;;;;;;;;;;5054740;28;20784;-45
2023/09/12 04:00:30;;;;;;;243.40;105.43;;;;;;;;;;5054883;28;20409;-45
2023/09/12 04:02:56;;;;;;;241.17;105.90;;;;;;;;;;5054551;28;20533;-45
2023/09/12 04:05:22;;;;;;;243.23;105.83;;;;;;;;;;5054764;28;20412;-45
2023/09/12 04:07:48;;;;;;;240.13;99.83;;;;;;;;;;5054329;28;20802;-45
2023/09/12 04:10:14;;;;;;;240.37;97.30;;;;;;;;;;5052878;28;20884;-45
2023/09/12 04:12:40;;;;;;;238.10;98.27;;;;;;;;;;5054567;28;20424;-45
2023/09/12 04:15:07;;;;;;;241.60;101.50;;;;;;;;;;5054116;28;20409;-45
2023/09/12 04:17:33;;;;;;;243.27;104.23;;;;;;;;;;5050159;28;20457;-45
2023/09/12 04:19:59;;;;;;;240.43;101.20;;;;;;;;;;5054135;28;20492;-45
2023/09/12 04:22:25;;;;;;;242.67;106.13;;;;;;;;;;5054195;28;20412;-45
2023/09/12 04:24:50;;;;;;;241.97;103.73;;;;;;;;;;5053126;28;20405;-45
2023/09/12 04:27:16;;;;;;;245.07;108.87;;;;;;;;;;5054000;28;20409;-45
2023/09/12 04:29:42;;;;;;;243.20;107.83;;;;;;;;;;5049746;28;20445;-45
2023/09/12 04:32:08;;;;;;;240.77;101.17;;;;;;;;;;5054173;28;20405;-45
2023/09/12 04:34:35;;;;;;;242.63;99.93;;;;;;;;;;5054179;28;20432;-46
2023/09/12 04:37:02;;;;;;;242.17;101.07;;;;;;;;;;5054230;28;20409;-46
2023/09/12 04:39:28;;;;;;;238.83;95.53;;;;;;;;;;5052801;28;20433;-45
2023/09/12 04:41:54;;;;;;;238.03;93.93;;;;;;;;;;5053944;28;20459;-46
2023/09/12 04:44:20;;;;;;;237.90;96.23;;;;;;;;;;5053950;28;20492;-45
2023/09/12 04:46:46;;;;;;;239.87;98.13;;;;;;;;;;5053948;28;20889;-45
2023/09/12 04:49:12;;;;;;;252.53;106.93;;;;;;;;;;5050031;28;20433;-45
2023/09/12 04:51:38;;;;;;;240.63;96.90;;;;;;;;;;5052747;28;20433;-46
2023/09/12 04:54:04;;;;;;;241.60;100.87;;;;;;;;;;5053871;28;20779;-45
2023/09/12 04:56:30;;;;;;;239.20;99.10;;;;;;;;;;5050915;28;20411;-45
2023/09/12 04:58:56;;;;;;;238.93;96.47;;;;;;;;;;5048943;28;20513;-45
2023/09/12 05:01:22;;;;;;;235.40;93.13;;;;;;;;;;5053620;28;20409;-46
2023/09/12 05:03:48;;;;;;;239.60;97.93;;;;;;;;;;5053211;28;20465;-46
2023/09/12 05:06:14;;;;;;;241.67;101.40;;;;;;;;;;5052489;28;20401;-45
2023/09/12 05:08:40;;;;;;;238.57;97.60;;;;;;;;;;5050433;28;20560;-45
2023/09/12 05:11:06;;;;;;;238.73;95.20;;;;;;;;;;5053707;28;20808;-46
2023/09/12 05:13:33;;;;;;;238.40;94.77;;;;;;;;;;5053563;28;20448;-45
2023/09/12 05:15:59;;;;;;;236.73;93.40;;;;;;;;;;5053213;28;20405;-46
2023/09/12 05:18:25;;;;;;;239.07;98.97;;;;;;;;;;5053130;28;20441;-45
2023/09/12 05:20:51;;;;;;;241.63;99.57;;;;;;;;;;5052189;28;20416;-45
2023/09/12 05:23:17;;;;;;;237.77;93.80;;;;;;;;;;5053188;28;20544;-45
2023/09/12 05:25:43;;;;;;;242.43;101.00;;;;;;;;;;5047180;28;20524;-45
2023/09/12 05:28:09;;;;;;;237.67;95.23;;;;;;;;;;5052692;28;20490;-46
2023/09/12 05:30:35;;;;;;;237.23;93.93;;;;;;;;;;5049333;28;20408;-45
2023/09/12 05:33:01;;;;;;;238.80;96.47;;;;;;;;;;5052974;28;20437;-45
2023/09/12 05:35:27;;;;;;;239.90;100.83;;;;;;;;;;5052872;28;20471;-46
2023/09/12 05:37:53;;;;;;;240.47;98.63;;;;;;;;;;5052690;28;20427;-45
2023/09/12 05:40:19;;;;;;;238.50;94.87;;;;;;;;;;5057529;28;20687;-45
2023/09/12 05:42:45;;;;;;;238.77;94.80;;;;;;;;;;5052714;28;20460;-45
2023/09/12 05:45:11;;;;;;;242.50;97.37;;;;;;;;;;5047987;28;20780;-45
2023/09/12 05:47:37;;;;;;;243.63;103.30;;;;;;;;;;5047986;28;20416;-45
2023/09/12 05:50:06;;;;;;;239.60;97.73;;;;;;;;;;5052988;28;20420;-45
2023/09/12 05:52:32;;;;;;;241.27;101.63;;;;;;;;;;5052615;28;21118;-45
2023/09/12 05:54:58;;;;;;;238.63;94.10;;;;;;;;;;5053104;28;20420;-45
2023/09/12 05:57:24;;;;;;;242.60;98.13;;;;;;;;;;5052479;28;20829;-45
2023/09/12 05:59:50;;;;;;;240.10;96.10;;;;;;;;;;5052480;28;20405;-45
2023/09/12 06:02:17;;;;;;;237.37;93.90;;;;;;;;;;5052323;28;20536;-45
2023/09/12 06:04:43;;;;;;;239.73;96.73;;;;;;;;;;5052339;28;20409;-45
2023/09/12 06:07:09;;;;;;;247.37;104.80;;;;;;;;;;5052003;28;20409;-46
2023/09/12 06:09:35;;;;;;;243.00;97.43;;;;;;;;;;5048738;28;20804;-45
2023/09/12 06:12:02;;;;;;;242.93;96.83;;;;;;;;;;5052430;28;20409;-45
2023/09/12 06:14:28;;;;;;;243.07;97.23;;;;;;;;;;5051641;28;20420;-45
2023/09/12 06:16:54;;;;;;;245.37;100.27;;;;;;;;;;5052082;28;20401;-46
2023/09/12 06:19:20;;;;;;;244.23;97.83;;;;;;;;;;5052023;28;21005;-45
2023/09/12 06:21:46;;;;;;;240.87;98.03;;;;;;;;;;5052154;28;20421;-45
2023/09/12 06:24:16;;;;;;;242.93;98.40;;;;;;;;;;5051989;28;20452;-45
2023/09/12 06:26:42;;;;;;;241.80;99.90;;;;;;;;;;5052425;28;20403;-45
2023/09/12 06:29:08;;;;;;;239.83;99.33;;;;;;;;;;5051878;28;20444;-45
2023/09/12 06:31:35;;;;;;;242.03;99.70;;;;;;;;;;5047142;28;20425;-46
2023/09/12 06:34:01;;;;;;;236.50;93.50;;;;;;;;;;5051074;28;20922;-45
2023/09/12 06:36:30;;;;;;;239.97;100.20;;;;;;;;;;5051231;28;20405;-46
2023/09/12 06:38:57;;;;;;;242.17;102.70;;;;;;;;;;5050345;28;20463;-45
2023/09/12 06:41:23;;;;;;;240.87;102.23;;;;;;;;;;5049146;28;20409;-46
2023/09/12 06:43:49;;;;;;;240.33;98.97;;;;;;;;;;5051065;28;20456;-45
2023/09/12 06:46:17;;;;;;;240.57;99.23;;;;;;;;;;5051192;28;20413;-45
2023/09/12 06:48:44;;;;;;;248.63;106.83;;;;;;;;;;5048513;28;20460;-45
2023/09/12 06:51:10;;;;;;;237.83;94.57;;;;;;;;;;5049903;28;20413;-45
2023/09/12 06:53:39;;;;;;;242.57;100.13;;;;;;;;;;5051615;28;20408;-45
2023/09/12 06:56:05;;;;;;;239.97;95.03;;;;;;;;;;5043495;28;20401;-45
2023/09/12 06:58:32;;;;;;;244.30;100.87;;;;;;;;;;5047295;28;21025;-45
2023/09/12 07:01:02;;;;;;;245.17;103.23;;;;;;;;;;5051454;28;20930;-45
2023/09/12 07:03:28;;;;;;;244.57;104.93;;;;;;;;;;5051554;28;20468;-45
2023/09/12 07:05:54;;;;;;;243.13;102.40;;;;;;;;;;5050878;28;20411;-45
2023/09/12 07:08:20;;;;;;;240.30;97.70;;;;;;;;;;5051351;28;20422;-45
2023/09/12 07:10:46;;;;;;;236.50;94.67;;;;;;;;;;5051367;28;20415;-45
2023/09/12 07:13:12;;;;;;;241.17;98.50;;;;;;;;;;5051445;28;20402;-46
2023/09/12 07:15:38;;;;;;;239.83;100.60;;;;;;;;;;5051259;28;20954;-45
2023/09/12 07:18:06;;;;;;;243.50;101.43;;;;;;;;;;5050975;28;20513;-45
2023/09/12 07:20:32;;;;;;;241.63;101.53;;;;;;;;;;5050582;28;20925;-45
2023/09/12 07:22:58;;;;;;;242.27;101.77;;;;;;;;;;5051239;28;20814;-45
2023/09/12 07:25:24;;;;;;;237.13;96.30;;;;;;;;;;5053281;28;20397;-46
2023/09/12 07:27:50;;;;;;;243.00;102.33;;;;;;;;;;5054867;28;20832;-45
2023/09/12 07:30:16;;;;;;;240.10;98.90;;;;;;;;;;5055456;28;20901;-45
2023/09/12 07:32:42;;;;;;;241.57;101.17;;;;;;;;;;5055284;28;20443;-45
2023/09/12 07:35:08;;;;;;;239.87;97.20;;;;;;;;;;5055232;28;20449;-45
2023/09/12 07:37:34;;;;;;;242.37;103.63;;;;;;;;;;5055081;28;20787;-45
2023/09/12 07:40:00;;;;;;;239.17;98.90;;;;;;;;;;5054443;28;20419;-45
2023/09/12 07:42:26;;;;;;;238.13;97.60;;;;;;;;;;5054104;28;20405;-45
2023/09/12 07:44:52;;;;;;;238.23;97.37;;;;;;;;;;5053608;28;20406;-46
2023/09/12 07:47:19;;;;;;;245.20;102.50;;;;;;;;;;5054821;28;20413;-45
2023/09/12 07:49:45;;;;;;;242.53;107.00;;;;;;;;;;5054909;28;20764;-45
2023/09/12 07:52:10;;;;;;;236.53;95.10;;;;;;;;;;5055059;28;20428;-45
2023/09/12 07:54:36;;;;;;;249.60;104.73;;;;;;;;;;5047497;28;20521;-46
2023/09/12 07:57:03;;;;;;;246.07;108.83;;;;;;;;;;5044760;28;20506;-45
2023/09/12 07:59:29;;;;;;;243.70;105.43;;;;;;;;;;5050884;28;20434;-45
2023/09/12 08:01:55;;;;;;;243.43;105.13;;;;;;;;;;5053647;28;20428;-45
2023/09/12 08:04:21;;;;;;;241.30;101.77;;;;;;;;;;5054621;28;20456;-45
2023/09/12 08:06:47;;;;;;;240.27;100.80;;;;;;;;;;5054820;28;20405;-46
2023/09/12 08:09:13;;;;;;;237.80;97.80;;;;;;;;;;5054367;28;20432;-45
2023/09/12 08:11:39;;;;;;;241.80;102.97;;;;;;;;;;5054351;28;20777;-45
2023/09/12 08:14:05;;;;;;;241.77;101.90;;;;;;;;;;5054631;28;20413;-46
2023/09/12 08:16:31;;;;;;;239.80;100.67;;;;;;;;;;5049890;28;20763;-45
2023/09/12 08:18:58;;;;;;;244.47;104.40;;;;;;;;;;5053282;28;20433;-46
2023/09/12 08:21:24;;;;;;;241.07;104.30;;;;;;;;;;5053708;28;20810;-45
2023/09/12 08:23:50;;;;;;;241.87;105.07;;;;;;;;;;5053580;28;21033;-46
2023/09/12 08:26:16;;;;;;;239.87;101.53;;;;;;;;;;5054295;28;20444;-45
2023/09/12 08:28:42;;;;;;;241.37;104.60;;;;;;;;;;5053512;28;20429;-45
2023/09/12 08:31:08;;;;;;;241.53;103.33;;;;;;;;;;5054252;28;20409;-45
2023/09/12 08:33:34;;;;;;;245.57;108.67;;;;;;;;;;5060772;28;20411;-45
2023/09/12 08:36:00;;;;;;;245.67;109.20;;;;;;;;;;5053768;28;20419;-45
2023/09/12 08:38:26;;;;;;;239.73;100.33;;;;;;;;;;5052939;28;20425;-45
2023/09/12 08:40:52;;;;;;;241.87;104.47;;;;;;;;;;5054076;28;20401;-45
2023/09/12 08:43:18;;;;;;;239.03;99.87;;;;;;;;;;5053834;28;20552;-45
2023/09/12 08:45:44;;;;;;;238.37;100.73;;;;;;;;;;5059371;28;20431;-46
2023/09/12 08:48:11;;;;;;;242.00;106.20;;;;;;;;;;5053606;28;20429;-46
2023/09/12 08:50:38;;;;;;;244.50;111.33;;;;;;;;;;5053445;28;20436;-45
2023/09/12 08:53:04;;;;;;;239.73;103.73;;;;;;;;;;5045719;28;20425;-45
2023/09/12 08:55:31;;;;;;;241.63;101.47;;;;;;;;;;5052815;28;20417;-45
2023/09/12 08:57:58;;;;;;;239.87;103.17;;;;;;;;;;5053525;28;20429;-45
2023/09/12 09:00:24;;;;;;;243.67;111.40;;;;;;;;;;5053816;28;20410;-45
2023/09/12 09:02:51;;;;;;;248.33;116.10;;;;;;;;;;5053377;28;20948;-45
2023/09/12 09:05:17;;;;;;;243.83;108.53;;;;;;;;;;5053603;28;20471;-46
2023/09/12 09:07:44;;;;;;;241.57;103.17;;;;;;;;;;5053260;28;20462;-45
2023/09/12 09:10:17;;;;;;;240.80;102.87;;;;;;;;;;5053985;28;20413;-45
2023/09/12 09:12:44;;;;;;;240.13;104.67;;;;;;;;;;5053412;28;20422;-45
2023/09/12 09:15:23;;;;;;;242.87;106.50;;;;;;;;;;5053083;28;20500;-45
2023/09/12 09:17:50;;;;;;;242.20;102.57;;;;;;;;;;5053066;28;20496;-46
2023/09/12 09:20:26;;;;;;;243.27;109.43;;;;;;;;;;5053327;28;20403;-46
2023/09/12 09:23:05;;;;;;;243.17;106.93;;;;;;;;;;5051811;28;20567;-47
2023/09/12 09:25:36;;;;;;;240.40;104.03;;;;;;;;;;5053146;28;20405;-48
2023/09/12 09:28:04;;;;;;;244.70;109.47;;;;;;;;;;5052505;28;20456;-46
2023/09/12 09:30:40;;;;;;;245.77;112.77;;;;;;;;;;5053100;28;20413;-46
2023/09/12 09:33:06;;;;;;;244.27;111.00;;;;;;;;;;5045670;28;20405;-48
2023/09/12 09:35:32;;;;;;;247.43;117.83;;;;;;;;;;5052795;28;20925;-47
2023/09/12 09:37:59;;;;;;;247.90;117.33;;;;;;;;;;5052634;28;20538;-46
2023/09/12 09:40:25;;;;;;;247.03;120.10;;;;;;;;;;5053017;28;20773;-48
2023/09/12 09:42:54;;;;;;;251.20;127.37;;;;;;;;;;5052964;28;20886;-46
2023/09/12 09:45:20;;;;;;;249.27;124.67;;;;;;;;;;5052944;28;20409;-46
2023/09/12 09:47:46;;;;;;;248.20;123.77;;;;;;;;;;5052119;28;20949;-47
2023/09/12 09:50:15;;;;;;;250.20;128.73;;;;;;;;;;5052733;28;20452;-47
2023/09/12 09:52:41;;;;;;;248.50;127.07;;;;;;;;;;5052566;28;20525;-48
2023/09/12 09:55:07;;;;;;;247.43;125.17;;;;;;;;;;5052429;28;20496;-46
2023/09/12 09:57:39;;;;;;;249.00;129.30;;;;;;;;;;5052318;28;20445;-46
2023/09/12 10:00:08;;;;;;;251.93;130.80;;;;;;;;;;5044632;28;20409;-47
2023/09/12 10:02:36;;;;;;;247.93;128.93;;;;;;;;;;5050868;28;20441;-46
2023/09/12 10:05:04;;;;;;;247.33;125.03;;;;;;;;;;5052206;28;20406;-46
2023/09/12 10:07:32;;;;;;;248.37;127.50;;;;;;;;;;5052122;28;20475;-47
2023/09/12 10:09:58;;;;;;;249.07;131.77;;;;;;;;;;5052331;28;20508;-46
2023/09/12 10:12:25;;;;;;;246.33;128.57;;;;;;;;;;5052305;28;20463;-46
2023/09/12 10:14:51;;;;;;;250.67;132.17;;;;;;;;;;5052030;28;20406;-46
2023/09/12 10:17:19;;;;;;;252.87;136.60;;;;;;;;;;5051826;28;20410;-46
2023/09/12 10:19:52;;;;;;;246.67;131.10;;;;;;;;;;5052064;28;20455;-46
2023/09/12 10:22:24;;;;;;;248.70;134.73;;;;;;;;;;5052121;28;20402;-46
2023/09/12 10:24:51;;;;;;;249.43;134.83;;;;;;;;;;5051752;28;20445;-47
2023/09/12 10:27:17;;;;;;;253.67;138.87;;;;;;;;;;5050686;28;20396;-46
2023/09/12 10:29:47;;;;;;;252.73;138.83;;;;;;;;;;5049965;28;20885;-47
2023/09/12 10:32:13;;;;;;;248.17;135.30;;;;;;;;;;5051608;28;20784;-46
2023/09/12 10:34:43;;;;;;;249.03;133.80;;;;;;;;;;5051492;28;20445;-46
2023/09/12 10:37:09;;;;;;;250.53;136.83;;;;;;;;;;5047687;28;20779;-46
2023/09/12 10:39:35;;;;;;;247.30;135.70;;;;;;;;;;5048995;28;20429;-47
2023/09/12 10:42:04;;;;;;;245.73;131.50;;;;;;;;;;5051540;28;20405;-47
2023/09/12 10:44:31;;;;;;;246.43;136.20;;;;;;;;;;5050603;28;20552;-46
2023/09/12 10:46:58;;;;;;;248.63;139.57;;;;;;;;;;5052197;28;20409;-47
2023/09/12 10:49:24;;;;;;;246.80;134.00;;;;;;;;;;5050815;28;20440;-46
2023/09/12 10:51:50;;;;;;;249.73;141.27;;;;;;;;;;5049884;28;20766;-46
2023/09/12 10:54:23;;;;;;;246.47;131.87;;;;;;;;;;5050121;28;20908;-46
2023/09/12 10:57:13;;;;;;;250.53;138.07;;;;;;;;;;5050495;28;20413;-46
2023/09/12 10:59:58;;;;;;;244.10;133.27;;;;;;;;;;5050310;28;20491;-46
2023/09/12 11:02:37;;;;;;;244.40;130.33;;;;;;;;;;5041864;28;20448;-46
2023/09/12 11:05:07;;;;;;;245.73;130.30;;;;;;;;;;5040175;28;20417;-46
2023/09/12 11:07:35;;;;;;;245.10;134.70;;;;;;;;;;5057345;28;20489;-45
2023/09/12 11:10:10;;;;;;;246.80;135.83;;;;;;;;;;5064842;28;20421;-46
2023/09/12 11:12:36;;;;;;;246.60;140.07;;;;;;;;;;5031589;28;20405;-46
2023/09/12 11:15:06;;;;;;;243.77;135.10;;;;;;;;;;5046011;28;20908;-46
2023/09/12 11:17:37;;;;;;;247.47;141.80;;;;;;;;;;5051065;28;20416;-46
2023/09/12 11:20:13;;;;;;;242.83;137.10;;;;;;;;;;5051652;28;20420;-45
2023/09/12 11:22:42;;;;;;;245.20;139.13;;;;;;;;;;5051355;28;20408;-46
2023/09/12 11:25:17;;;;;;;244.23;137.03;;;;;;;;;;5051707;28;20535;-47
2023/09/12 11:27:47;;;;;;;243.40;135.53;;;;;;;;;;5050502;28;20443;-45
2023/09/12 11:30:13;;;;;;;245.40;135.23;;;;;;;;;;5051372;28;20850;-45
2023/09/12 11:32:39;;;;;;;245.43;136.73;;;;;;;;;;5051297;28;21027;-45
2023/09/12 11:35:06;;;;;;;246.97;133.23;;;;;;;;;;5051135;28;20492;-46
2023/09/12 11:37:33;;;;;;;245.67;129.63;;;;;;;;;;5051022;28;20425;-45
2023/09/12 11:39:59;;;;;;;245.83;126.27;;;;;;;;;;5051091;28;20409;-45
2023/09/12 11:42:25;;;;;;;245.00;128.30;;;;;;;;;;5051165;28;20450;-46
2023/09/12 11:44:51;;;;;;;248.27;131.33;;;;;;;;;;5051103;28;20417;-45
2023/09/12 11:47:18;;;;;;;247.77;126.30;;;;;;;;;;5051202;28;20475;-45
2023/09/12 11:49:44;;;;;;;246.33;124.03;;;;;;;;;;5051262;28;20466;-46
2023/09/12 11:52:16;;;;;;;246.20;127.30;;;;;;;;;;5046410;28;20429;-46
2023/09/12 11:54:42;;;;;;;247.47;127.07;;;;;;;;;;5048648;28;20405;-45
2023/09/12 11:57:09;;;;;;;255.53;134.60;;;;;;;;;;5051077;28;20408;-45
2023/09/12 11:59:39;;;;;;;243.50;123.47;;;;;;;;;;5054156;28;20429;-45
2023/09/12 12:02:08;;;;;;;243.07;119.90;;;;;;;;;;5047996;28;20417;-45
2023/09/12 12:04:35;;;;;;;242.90;122.03;;;;;;;;;;5050874;28;20461;-46
2023/09/12 12:07:01;;;;;;;248.67;133.17;;;;;;;;;;5050666;28;20606;-45
2023/09/12 12:09:27;;;;;;;244.37;125.17;;;;;;;;;;5049500;28;20429;-46
2023/09/12 12:11:53;;;;;;;244.80;124.60;;;;;;;;;;5051292;28;20413;-45
2023/09/12 12:14:20;;;;;;;245.30;125.70;;;;;;;;;;5052257;28;20889;-45
2023/09/12 12:16:47;;;;;;;242.83;122.50;;;;;;;;;;5048491;28;20474;-45
2023/09/12 12:19:14;;;;;;;244.40;125.17;;;;;;;;;;5054109;28;20983;-45
2023/09/12 12:21:41;;;;;;;247.20;128.93;;;;;;;;;;5046276;28;20421;-45
2023/09/12 12:24:08;;;;;;;245.23;128.10;;;;;;;;;;5052728;28;20468;-46
2023/09/12 12:26:34;;;;;;;246.40;131.73;;;;;;;;;;5054260;28;20405;-45
2023/09/12 12:29:01;;;;;;;244.30;126.20;;;;;;;;;;5053914;28;20433;-46
2023/09/12 12:31:28;;;;;;;244.87;128.43;;;;;;;;;;5054198;28;20782;-45
2023/09/12 12:33:55;;;;;;;245.30;129.43;;;;;;;;;;5053993;28;20444;-46
2023/09/12 12:36:21;;;;;;;244.90;129.20;;;;;;;;;;5054127;28;20962;-46
2023/09/12 12:38:48;;;;;;;246.13;130.57;;;;;;;;;;5052460;28;20429;-45
2023/09/12 12:41:17;;;;;;;247.00;136.77;;;;;;;;;;5054126;28;20410;-45
2023/09/12 12:43:43;;;;;;;249.63;143.73;;;;;;;;;;5053798;28;20601;-45
2023/09/12 12:46:13;;;;;;;247.33;138.67;;;;;;;;;;5060296;28;20539;-45
2023/09/12 12:48:43;;;;;;;246.17;136.27;;;;;;;;;;5053422;28;20772;-46
2023/09/12 12:51:18;;;;;;;244.37;134.13;;;;;;;;;;5054021;28;20494;-45
2023/09/12 12:53:45;;;;;;;244.37;135.87;;;;;;;;;;5053642;28;20417;-46
2023/09/12 12:56:13;;;;;;;245.50;135.53;;;;;;;;;;5053657;28;20397;-45
2023/09/12 12:58:39;;;;;;;244.70;136.90;;;;;;;;;;5053454;28;20423;-45
2023/09/12 13:01:05;;;;;;;244.53;130.67;;;;;;;;;;5053566;28;20496;-45
2023/09/12 13:03:31;;;;;;;244.73;135.03;;;;;;;;;;5053523;28;20475;-45
2023/09/12 13:05:57;;;;;;;246.77;137.63;;;;;;;;;;5052394;28;20410;-46
2023/09/12 13:08:25;;;;;;;247.53;135.83;;;;;;;;;;5056135;28;20421;-46
2023/09/12 13:10:51;;;;;;;242.10;133.43;;;;;;;;;;5053466;28;20405;-45
2023/09/12 13:13:16;;;;;;;242.40;133.03;;;;;;;;;;5053344;28;20421;-45
2023/09/12 13:15:43;;;;;;;247.43;136.87;;;;;;;;;;5053031;28;20405;-46
2023/09/12 13:18:09;;;;;;;244.20;132.97;;;;;;;;;;5053149;28;20916;-45
2023/09/12 13:20:34;;;;;;;246.77;142.27;;;;;;;;;;5052125;28;20405;-46
2023/09/12 13:23:00;;;;;;;244.73;135.33;;;;;;;;;;5052702;28;21088;-46
2023/09/12 13:25:26;;;;;;;244.07;140.77;;;;;;;;;;5053167;28;20904;-46
2023/09/12 13:27:52;;;;;;;245.67;141.53;;;;;;;;;;5052814;28;20516;-46
2023/09/12 13:30:19;;;;;;;246.07;141.80;;;;;;;;;;5058096;28;20896;-47
2023/09/12 13:32:46;;;;;;;245.10;140.13;;;;;;;;;;5054300;28;20412;-45
2023/09/12 13:35:12;;;;;;;245.10;139.83;;;;;;;;;;5052875;28;20405;-45
2023/09/12 13:37:38;;;;;;;242.37;136.73;;;;;;;;;;5052654;28;20436;-46
2023/09/12 13:40:06;;;;;;;244.90;140.57;;;;;;;;;;5052884;28;20406;-45
2023/09/12 13:42:32;;;;;;;246.30;142.87;;;;;;;;;;5052747;28;20973;-46
2023/09/12 13:44:58;;;;;;;243.60;135.47;;;;;;;;;;5052457;28;20499;-46
2023/09/12 13:47:25;;;;;;;244.57;138.40;;;;;;;;;;5051550;28;20409;-46
2023/09/12 13:49:52;;;;;;;245.90;135.93;;;;;;;;;;5052616;28;20471;-45
2023/09/12 13:52:18;;;;;;;245.23;137.37;;;;;;;;;;5052558;28;20429;-46
2023/09/12 13:54:44;;;;;;;242.80;138.80;;;;;;;;;;5052563;28;20414;-45